Time;durP1;ratioP1;P1;durP2;ratioP2;P2;SDS_P1;SDS_P2;PMS_P1;PMS_P2;Temp;Humidity;BMP_temperature;BMP_pressure;BME280_temperature;BME280_humidity;BME280_pressure;Samples;Min_cycle;Max_cycle;Signal;HPM_P1;HPM_P2
2022/05/10 00:02:16;;;;;;;;;26.25;24.25;;;;;21.03;43.78;101723.19;4965468;28;67954;-82
2022/05/10 00:05:32;;;;;;;;;28.00;25.00;;;;;20.79;43.72;101682.00;4959884;28;45573;-82
2022/05/10 05:52:10;;;;;;;;;;;;;;;;;;;;;
2022/05/10 05:55:53;;;;;;;;;;;;;;;;;;;;;
2022/05/10 06:19:36;;;;;;;;;;;;;;;;;;;;;
2022/05/10 06:22:22;;;;;;;;;16.00;14.50;;;;;21.95;42.30;101548.53;4718035;30;72872;-86
2022/05/10 06:28:09;;;;;;;;;15.50;15.00;;;;;22.06;41.64;101532.00;4729584;30;45480;-83
2022/05/10 06:31:29;;;;;;;;;15.75;15.75;;;;;22.18;41.96;101542.28;4736726;30;45392;-84
2022/05/10 06:33:58;;;;;;;;;9.50;8.75;;;;;22.40;41.61;101558.41;4884791;28;45663;-84
2022/05/10 06:36:23;;;;;;;;;14.00;14.00;;;;;22.28;41.59;101520.47;4901226;29;47194;-82
2022/05/10 06:38:48;;;;;;;;;15.50;14.50;;;;;22.50;41.16;101552.66;4979411;28;45321;-82
2022/05/10 06:41:14;;;;;;;;;15.50;14.50;;;;;22.49;41.03;101535.69;5002514;28;45474;-82
2022/05/10 06:43:40;;;;;;;;;16.75;15.25;;;;;22.59;41.31;101549.63;5001317;28;45940;-82
2022/05/10 06:46:13;;;;;;;;;16.75;13.50;;;;;22.49;40.91;101519.59;5018809;28;46930;-82
2022/05/10 06:48:39;;;;;;;;;16.25;12.00;;;;;22.76;41.12;101555.16;5019120;28;45384;-82
2022/05/10 06:51:09;;;;;;;;;16.00;14.75;;;;;22.71;41.18;101541.03;5018839;28;45395;-83
2022/05/10 06:53:35;;;;;;;;;15.25;14.00;;;;;22.88;40.99;101561.81;5019594;28;45281;-82
2022/05/10 06:56:01;;;;;;;;;16.25;16.00;;;;;22.75;41.16;101526.56;5018699;28;46885;-82
2022/05/10 06:58:27;;;;;;;;;16.00;15.25;;;;;22.91;40.76;101548.28;5030838;28;45466;-82
2022/05/10 07:00:55;;;;;;;;;15.50;13.00;;;;;22.94;40.03;101545.47;5020108;28;45470;-83
2022/05/10 07:03:33;;;;;;;;;11.50;11.25;;;;;22.97;40.33;101539.13;5019769;28;45265;-82
2022/05/10 07:06:00;;;;;;;;;15.00;15.00;;;;;23.00;40.02;101547.03;5019994;28;45326;-82
2022/05/10 07:08:26;;;;;;;;;12.75;12.75;;;;;22.88;40.01;101522.44;5019509;28;45403;-83
2022/05/10 07:10:52;;;;;;;;;12.00;12.00;;;;;23.04;40.39;101543.28;5019906;28;45433;-81
2022/05/10 07:13:21;;;;;;;;;13.50;13.25;;;;;23.06;40.05;101536.88;5019677;28;45527;-82
2022/05/10 07:15:47;;;;;;;;;11.75;11.00;;;;;23.21;39.95;101547.94;5018615;28;48364;-82
2022/05/10 07:18:16;;;;;;;;;16.00;13.25;;;;;23.15;40.06;101527.59;5000883;28;46196;-83
2022/05/10 07:20:43;;;;;;;;;13.75;12.50;;;;;23.16;39.88;101515.03;5018186;28;45385;-82
2022/05/10 07:23:10;;;;;;;;;17.25;14.50;;;;;23.28;39.95;101531.47;5008745;28;45567;-83
2022/05/10 07:25:37;;;;;;;;;15.25;14.25;;;;;23.27;39.73;101523.47;5018325;28;48603;-82
2022/05/10 07:28:03;;;;;;;;;16.00;14.25;;;;;23.23;39.64;101514.69;5019349;28;45222;-82
2022/05/10 07:30:30;;;;;;;;;17.00;13.25;;;;;23.45;39.32;101545.97;5018279;28;45316;-82
2022/05/10 07:32:56;;;;;;;;;13.75;13.75;;;;;23.24;39.22;101529.84;5000986;28;45558;-80
2022/05/10 07:38:13;;;;;;;;;14.00;14.00;;;;;23.19;39.53;101539.94;5019244;28;45305;-79
2022/05/10 07:40:40;;;;;;;;;12.75;12.75;;;;;23.05;39.45;101527.09;5017752;28;45328;-78
2022/05/10 07:43:06;;;;;;;;;15.75;14.75;;;;;23.00;39.18;101533.63;5017913;28;45578;-78
2022/05/10 07:45:32;;;;;;;;;16.25;14.50;;;;;23.05;39.56;101537.84;5018813;28;45443;-79
2022/05/10 07:47:58;;;;;;;;;14.25;14.25;;;;;23.00;39.74;101537.16;5017641;28;46041;-78
2022/05/10 07:50:23;;;;;;;;;14.75;13.50;;;;;23.08;39.96;101545.75;5018789;28;45466;-78
2022/05/10 07:52:48;;;;;;;;;12.50;10.75;;;;;22.99;39.91;101519.31;5018899;28;45282;-78
2022/05/10 07:55:14;;;;;;;;;14.00;13.00;;;;;23.04;40.28;101530.75;5000976;28;48083;-78
2022/05/10 07:57:42;;;;;;;;;13.75;13.75;;;;;23.18;40.23;101531.94;5024594;28;45497;-79
2022/05/10 08:00:08;;;;;;;;;12.75;12.75;;;;;23.30;40.15;101552.88;5005865;28;45312;-78
2022/05/10 08:02:35;;;;;;;;;14.50;14.50;;;;;23.27;40.01;101544.97;5004025;28;45288;-79
2022/05/10 08:05:02;;;;;;;;;14.25;13.25;;;;;23.32;40.12;101557.25;5020613;28;48903;-82
2022/05/10 08:07:30;;;;;;;;;17.00;15.75;;;;;23.35;40.34;101564.31;5021186;28;45394;-82
2022/05/10 08:09:56;;;;;;;;;15.50;14.00;;;;;23.30;40.19;101550.19;5006465;28;45469;-79
2022/05/10 08:12:21;;;;;;;;;12.00;11.75;;;;;23.35;40.76;101558.94;5021089;28;45701;-81
2022/05/10 08:14:47;;;;;;;;;12.75;11.75;;;;;23.31;40.10;101550.16;5004209;28;46797;-82
2022/05/10 08:17:12;;;;;;;;;14.00;14.00;;;;;23.27;40.14;101531.53;5004412;28;45200;-79
2022/05/10 08:19:38;;;;;;;;;15.75;13.75;;;;;23.38;40.37;101555.25;5020609;28;45337;-81
2022/05/10 08:22:04;;;;;;;;;12.50;12.50;;;;;23.49;40.41;101561.88;5003790;28;45741;-83
2022/05/10 08:24:29;;;;;;;;;14.00;12.75;;;;;23.30;40.11;101537.63;5004650;28;48103;-81
2022/05/10 08:26:55;;;;;;;;;14.25;14.00;;;;;23.50;40.31;101571.69;5022286;28;45137;-82
2022/05/10 08:29:20;;;;;;;;;14.50;14.00;;;;;23.32;40.06;101530.38;5020802;28;45478;-83
2022/05/10 08:31:45;;;;;;;;;16.00;13.75;;;;;23.56;39.77;101557.97;5020460;28;45915;-86
2022/05/10 08:34:11;;;;;;;;;13.50;13.50;;;;;23.57;39.66;101556.16;5001048;28;47085;-82
2022/05/10 08:36:36;;;;;;;;;13.00;12.25;;;;;23.58;40.12;101551.69;5020824;28;45396;-83
2022/05/10 08:39:02;;;;;;;;;12.00;12.00;;;;;23.51;39.73;101532.25;5002356;28;45502;-83
2022/05/10 08:41:39;;;;;;;;;13.25;12.00;;;;;23.69;39.49;101557.44;5004097;28;45619;-83
2022/05/10 08:44:14;;;;;;;;;14.00;14.00;;;;;23.56;39.70;101506.03;5021603;28;45385;-84
2022/05/10 08:46:43;;;;;;;;;13.50;12.00;;;;;23.91;39.73;101551.97;5020230;28;45450;-82
2022/05/10 08:49:24;;;;;;;;;14.25;13.25;;;;;24.07;39.21;101547.59;5021321;28;45466;-82
2022/05/10 08:51:52;;;;;;;;;10.00;8.50;;;;;24.18;38.91;101542.56;5020089;28;45470;-82
2022/05/10 08:54:17;;;;;;;;;9.50;9.50;;;;;24.33;38.39;101530.22;5021794;28;45283;-81
2022/05/10 08:56:53;;;;;;;;;11.75;10.75;;;;;24.42;38.09;101521.69;5021420;28;45381;-81
2022/05/10 08:59:53;;;;;;;;;11.25;10.00;;;;;24.66;38.01;101542.97;4992261;28;45290;-81
2022/05/10 09:02:27;;;;;;;;;13.25;12.25;;;;;24.61;38.29;101518.09;5003420;28;45444;-81
2022/05/10 09:05:19;;;;;;;;;12.75;12.25;;;;;24.83;37.74;101531.34;5021240;28;45500;-81
2022/05/10 09:07:53;;;;;;;;;14.25;14.00;;;;;25.06;37.91;101532.88;4994404;28;45344;-82
2022/05/10 09:10:24;;;;;;;;;13.00;13.00;;;;;25.13;37.27;101522.63;5020181;28;45272;-85
2022/05/10 09:13:01;;;;;;;;;10.75;10.75;;;;;25.43;37.37;101541.75;5020861;28;45298;-81
2022/05/10 09:15:33;;;;;;;;;11.00;11.00;;;;;25.51;36.71;101534.13;5019958;28;47892;-81
2022/05/10 09:17:58;;;;;;;;;14.00;12.50;;;;;25.63;36.46;101530.75;5002880;28;45345;-81
2022/05/10 09:20:24;;;;;;;;;13.50;13.50;;;;;25.84;36.37;101538.66;5021248;28;45424;-83
2022/05/10 09:23:35;;;;;;;;;11.00;11.00;;;;;25.98;36.16;101537.91;5021093;28;45540;-87
2022/05/10 09:26:01;;;;;;;;;11.75;11.25;;;;;25.94;35.28;101521.03;4955778;28;47267;-84
2022/05/10 09:28:33;;;;;;;;;9.75;8.25;;;;;26.11;35.61;101534.41;5003349;28;45353;-83
2022/05/10 09:37:38;;;;;;;;;;;;;;;;;;;;;
2022/05/10 09:43:33;;;;;;;;;9.50;9.50;;;;;26.09;34.01;101494.97;5013017;28;45434;-80
2022/05/10 09:46:12;;;;;;;;;11.50;11.00;;;;;26.27;34.17;101529.03;5007021;28;45528;-82
2022/05/10 09:48:40;;;;;;;;;10.75;10.00;;;;;26.10;34.27;101500.31;5017207;28;47165;-81
2022/05/10 09:51:33;;;;;;;;;10.25;10.25;;;;;26.28;34.32;101520.00;5017548;28;45447;-79
2022/05/10 09:54:04;;;;;;;;;11.00;10.00;;;;;26.17;33.42;101506.25;5005653;28;45427;-80
2022/05/10 09:56:36;;;;;;;;;9.33;9.33;;;;;26.09;33.67;101490.47;4996742;28;45475;-79
2022/05/10 09:59:21;;;;;;;;;9.75;9.75;;;;;26.35;33.40;101513.25;5012889;28;46019;-80
2022/05/10 10:01:55;;;;;;;;;12.75;12.75;;;;;26.33;33.46;101504.41;5019369;28;45300;-79
2022/05/10 10:04:32;;;;;;;;;12.00;12.00;;;;;26.37;33.42;101513.19;5016600;28;45221;-78
2022/05/10 10:07:09;;;;;;;;;9.50;9.50;;;;;26.41;33.37;101512.06;5017164;28;45432;-80
2022/05/10 10:09:37;;;;;;;;;12.50;12.50;;;;;26.35;33.18;101502.47;5017678;28;47378;-78
2022/05/10 10:12:05;;;;;;;;;9.25;9.25;;;;;26.19;33.20;101477.31;5001536;28;45362;-78
2022/05/10 10:14:44;;;;;;;;;11.00;11.00;;;;;26.35;33.18;101497.06;5010917;28;45539;-79
2022/05/10 10:17:22;;;;;;;;;18.50;14.50;;;;;26.32;33.00;101483.75;5015849;28;45823;-78
2022/05/10 10:20:19;;;;;;;;;10.00;10.00;;;;;26.46;33.10;101498.28;5009087;28;45839;-79
2022/05/10 10:23:02;;;;;;;;;10.25;10.25;;;;;26.35;32.38;101480.84;4991876;28;45584;-78
2022/05/10 10:25:39;;;;;;;;;9.67;8.67;;;;;26.34;31.58;101473.72;5016989;28;45406;-78
2022/05/10 10:28:45;;;;;;;;;9.67;9.67;;;;;26.50;31.83;101507.94;4999511;28;45913;-78
2022/05/10 10:31:29;;;;;;;;;9.00;8.33;;;;;26.46;31.58;101485.63;4954144;28;47041;-79
2022/05/10 10:34:07;;;;;;;;;11.25;11.25;;;;;26.54;31.74;101496.91;5007676;28;45269;-79
2022/05/10 10:37:00;;;;;;;;;8.67;8.67;;;;;26.67;30.68;101517.78;5016790;28;45522;-79
2022/05/10 10:39:49;;;;;;;;;10.50;10.00;;;;;26.69;31.20;101507.75;5008815;28;45587;-79
2022/05/10 10:42:29;;;;;;;;;8.75;8.75;;;;;26.59;31.12;101485.81;5008531;28;47325;-79
2022/05/10 10:44:57;;;;;;;;;10.50;9.50;;;;;26.72;31.09;101494.94;5001308;28;45322;-79
2022/05/10 10:47:40;;;;;;;;;8.50;8.50;;;;;26.66;31.17;101486.34;4999552;28;45487;-79
2022/05/10 10:50:26;;;;;;;;;11.75;10.25;;;;;26.90;30.77;101505.63;5012980;28;45606;-79
2022/05/10 10:52:57;;;;;;;;;5.50;5.00;;;;;26.89;31.12;101501.16;5000856;28;46697;-79
2022/05/10 10:55:33;;;;;;;;;10.00;10.00;;;;;26.99;31.42;101492.41;5018357;28;45438;-79
2022/05/10 10:58:25;;;;;;;;;10.67;9.67;;;;;27.05;31.32;101486.63;5024089;28;45403;-79
2022/05/10 11:00:59;;;;;;;;;11.00;11.00;;;;;27.18;31.06;101497.56;5010706;28;45557;-78
2022/05/10 11:03:36;;;;;;;;;8.67;8.67;;;;;27.04;30.87;101487.59;5013155;28;45598;-79
2022/05/10 11:06:13;;;;;;;;;11.00;11.00;;;;;27.13;30.83;101469.94;5000126;28;45457;-77
2022/05/10 11:08:51;;;;;;;;;8.50;8.50;;;;;27.23;31.03;101459.44;4994934;28;45712;-77
2022/05/10 11:11:29;;;;;;;;;10.00;10.00;;;;;27.34;30.94;101466.88;5004122;28;45687;-77
2022/05/10 11:14:21;;;;;;;;;9.25;9.25;;;;;27.51;30.66;101468.56;5008720;28;45795;-75
2022/05/10 11:16:53;;;;;;;;;7.75;7.75;;;;;27.60;30.70;101457.13;5015858;28;45540;-79
2022/05/10 11:19:43;;;;;;;;;11.00;9.75;;;;;27.76;30.24;101457.03;5016573;28;45392;-79
2022/05/10 11:22:30;;;;;;;;;10.33;10.00;;;;;27.81;29.91;101461.19;5012177;28;45661;-79
2022/05/10 11:25:14;;;;;;;;;8.33;8.00;;;;;27.87;30.12;101452.66;5014828;28;46389;-78
2022/05/10 11:27:43;;;;;;;;;11.67;10.00;;;;;27.95;29.59;101459.44;5010701;28;46104;-78
2022/05/10 11:30:31;;;;;;;;;11.00;10.00;;;;;27.90;30.22;101457.88;4997003;28;45344;-79
2022/05/10 11:33:31;;;;;;;;;11.00;11.00;;;;;27.78;30.15;101453.25;4999288;28;45556;-79
2022/05/10 11:36:27;;;;;;;;;9.00;9.00;;;;;27.77;29.67;101437.09;5020197;28;45568;-80
2022/05/10 11:39:23;;;;;;;;;10.50;10.25;;;;;27.89;29.86;101458.84;5008943;28;45616;-80
2022/05/10 11:42:18;;;;;;;;;10.00;9.33;;;;;27.80;29.99;101466.66;5018264;28;45420;-80
2022/05/10 11:44:54;;;;;;;;;9.33;9.33;;;;;27.76;29.91;101459.72;4999493;28;45509;-80
2022/05/10 11:47:28;;;;;;;;;9.50;9.50;;;;;27.77;30.21;101453.31;5017803;28;47197;-79
2022/05/10 11:50:19;;;;;;;;;9.50;9.25;;;;;27.73;30.30;101440.97;5011964;28;45472;-79
2022/05/10 11:53:00;;;;;;;;;9.00;8.50;;;;;27.67;30.53;101440.41;5013142;28;45493;-79
2022/05/10 11:56:01;;;;;;;;;8.75;8.50;;;;;27.65;30.82;101447.75;5018728;28;46091;-79
2022/05/10 11:58:30;;;;;;;;;10.67;10.67;;;;;27.62;30.36;101426.31;4969560;28;46889;-78
2022/05/10 12:00:58;;;;;;;;;8.00;8.00;;;;;27.68;30.16;101428.59;5017892;28;45345;-88
2022/05/10 12:03:35;;;;;;;;;9.00;8.33;;;;;27.65;30.26;101430.66;5020411;28;45559;-81
2022/05/10 12:06:22;;;;;;;;;6.00;6.00;;;;;27.68;30.22;101433.16;5016608;28;45543;-79
2022/05/10 12:09:12;;;;;;;;;8.75;8.75;;;;;27.58;30.33;101413.06;5006702;28;47462;-79
2022/05/10 12:11:39;;;;;;;;;8.00;8.00;;;;;27.64;29.81;101400.03;5021244;28;45614;-79
2022/05/10 12:22:45;;;;;;;;;8.67;8.67;;;;;28.17;29.05;101407.41;5021293;28;45478;-80
2022/05/10 12:25:49;;;;;;;;;11.33;9.67;;;;;28.23;28.34;101397.06;5009931;28;45427;-79
2022/05/10 12:28:44;;;;;;;;;11.33;8.67;;;;;28.34;28.93;101394.47;5009378;28;45337;-79
2022/05/10 12:31:32;;;;;;;;;8.67;8.67;;;;;28.49;29.08;101392.59;5018435;28;46480;-77
2022/05/10 12:34:06;;;;;;;;;8.00;8.00;;;;;28.69;28.93;101382.22;4999196;28;45827;-77
2022/05/10 12:36:41;;;;;;;;;11.00;9.75;;;;;28.74;28.49;101370.09;5019285;28;45495;-78
2022/05/10 12:39:16;;;;;;;;;10.00;10.00;;;;;28.98;28.47;101389.16;5016285;28;45514;-79
2022/05/10 12:41:49;;;;;;;;;9.25;8.25;;;;;28.94;28.35;101375.94;5020918;28;45533;-78
2022/05/10 12:44:44;;;;;;;;;10.33;10.00;;;;;28.91;28.43;101389.72;5013394;28;45572;-78
2022/05/10 12:47:36;;;;;;;;;7.00;7.00;;;;;28.73;28.77;101371.03;5015502;28;45443;-78
2022/05/10 12:50:43;;;;;;;;;10.75;10.75;;;;;28.77;28.23;101371.72;5003706;28;45569;-78
2022/05/10 12:53:26;;;;;;;;;9.00;8.00;;;;;28.95;28.53;101373.13;5018908;28;46814;-78
2022/05/10 12:56:04;;;;;;;;;10.00;9.75;;;;;29.16;28.08;101378.88;4987836;28;45526;-79
2022/05/10 12:58:35;;;;;;;;;7.00;6.00;;;;;29.31;28.18;101373.31;4987287;28;45372;-78
2022/05/10 13:01:04;;;;;;;;;8.00;8.00;;;;;29.39;27.70;101363.63;5017602;28;45511;-78
2022/05/10 13:03:45;;;;;;;;;10.75;10.00;;;;;29.28;27.72;101351.84;5016853;28;45447;-78
2022/05/10 13:06:28;;;;;;;;;8.00;8.00;;;;;29.30;28.03;101349.88;5009553;28;45887;-78
2022/05/10 13:09:17;;;;;;;;;8.50;8.50;;;;;29.52;27.50;101347.31;5005909;28;45261;-78
2022/05/10 13:11:50;;;;;;;;;9.00;8.00;;;;;29.66;27.30;101357.19;5018235;28;45400;-78
2022/05/10 13:14:16;;;;;;;;;8.00;8.00;;;;;29.64;27.17;101362.75;5008455;28;46923;-78
2022/05/10 13:16:53;;;;;;;;;10.00;8.00;;;;;29.60;27.24;101335.91;5002073;28;45467;-78
2022/05/10 13:19:23;;;;;;;;;7.50;7.50;;;;;29.53;27.09;101323.78;5019066;28;45433;-78
2022/05/10 13:21:49;;;;;;;;;8.00;8.00;;;;;29.48;26.68;101329.53;4990470;28;45789;-78
2022/05/10 13:24:18;;;;;;;;;7.50;7.50;;;;;29.47;27.29;101330.53;5018320;28;45539;-78
2022/05/10 13:26:57;;;;;;;;;6.67;6.67;;;;;29.60;26.97;101320.50;5009676;28;45202;-79
2022/05/10 13:29:56;;;;;;;;;6.75;6.75;;;;;29.71;25.96;101330.56;5013978;28;45682;-79
2022/05/10 13:32:36;;;;;;;;;9.00;8.75;;;;;29.95;26.27;101341.41;4983450;28;45399;-79
2022/05/10 13:35:24;;;;;;;;;8.75;8.75;;;;;29.93;26.55;101326.22;5018795;28;46278;-79
2022/05/10 13:38:00;;;;;;;;;9.75;9.50;;;;;29.73;26.39;101325.03;5001174;28;45610;-78
2022/05/10 13:40:42;;;;;;;;;7.00;7.00;;;;;29.80;27.24;101319.00;5017757;28;45455;-78
2022/05/10 13:43:21;;;;;;;;;11.50;9.75;;;;;29.89;26.85;101323.75;5006214;28;45376;-79
2022/05/10 13:45:53;;;;;;;;;6.50;6.50;;;;;29.71;26.81;101298.00;5016168;28;47083;-79
2022/05/10 13:48:29;;;;;;;;;9.00;8.75;;;;;29.55;27.28;101300.97;5005476;28;45833;-77
2022/05/10 13:51:03;;;;;;;;;10.00;10.00;;;;;29.60;26.85;101297.91;5016231;28;45470;-77
2022/05/10 13:53:31;;;;;;;;;7.00;6.75;;;;;29.78;27.51;101282.09;5013446;28;45452;-78
2022/05/10 13:55:59;;;;;;;;;8.25;7.25;;;;;30.07;27.17;101291.63;5016982;28;46570;-78
2022/05/10 13:58:37;;;;;;;;;8.00;8.00;;;;;30.24;26.21;101284.91;5029253;28;45356;-78
2022/05/10 14:01:04;;;;;;;;;5.75;5.75;;;;;30.36;26.61;101301.22;5000199;28;45498;-78
2022/05/10 14:03:30;;;;;;;;;7.50;6.75;;;;;30.41;25.71;101288.13;5019663;28;46070;-78
2022/05/10 14:06:10;;;;;;;;;8.00;7.00;;;;;30.42;26.06;101287.13;5016005;28;47654;-78
2022/05/10 14:08:40;;;;;;;;;7.25;7.00;;;;;30.41;26.11;101297.16;5019274;28;45537;-78
2022/05/10 14:11:16;;;;;;;;;9.25;8.50;;;;;30.51;26.36;101295.44;5019164;28;45658;-77
2022/05/10 14:14:13;;;;;;;;;8.25;8.00;;;;;30.66;25.85;101300.63;5006754;28;45352;-78
2022/05/10 14:16:41;;;;;;;;;6.50;6.50;;;;;30.59;25.61;101273.09;5013434;28;47120;-79
2022/05/10 14:19:22;;;;;;;;;8.25;7.25;;;;;30.72;25.88;101290.16;5000881;28;45386;-78
2022/05/10 14:21:52;;;;;;;;;6.75;6.75;;;;;30.71;25.72;101284.81;4988825;28;45673;-78
2022/05/10 14:24:19;;;;;;;;;10.00;9.25;;;;;30.61;25.87;101289.25;5004542;28;45573;-78
2022/05/10 14:26:49;;;;;;;;;6.00;6.00;;;;;30.64;25.81;101278.16;5008227;28;48195;-78
2022/05/10 14:29:22;;;;;;;;;7.67;7.33;;;;;30.75;26.01;101268.16;5018972;28;45225;-79
2022/05/10 14:31:59;;;;;;;;;9.75;8.75;;;;;30.98;25.95;101279.91;5016017;28;46497;-78
2022/05/10 14:34:48;;;;;;;;;6.75;6.75;;;;;30.96;25.68;101278.31;5000748;28;45369;-79
2022/05/10 14:37:28;;;;;;;;;8.75;8.75;;;;;30.76;25.70;101260.84;5017565;28;48277;-78
2022/05/10 14:39:56;;;;;;;;;11.00;9.75;;;;;30.61;25.63;101264.78;5017351;28;45763;-78
2022/05/10 14:42:38;;;;;;;;;8.33;8.33;;;;;30.57;25.36;101261.47;5002725;28;45903;-78
2022/05/10 14:45:31;;;;;;;;;8.50;7.50;;;;;30.57;25.77;101261.47;5018956;28;45301;-78
2022/05/10 14:47:57;;;;;;;;;7.00;7.00;;;;;30.53;26.27;101240.97;4997827;28;47156;-78
2022/05/10 14:50:44;;;;;;;;;6.00;6.00;;;;;30.72;26.15;101243.06;5016729;28;45312;-78
2022/05/10 14:53:20;;;;;;;;;7.75;7.75;;;;;30.89;25.70;101230.84;4991728;28;45407;-79
2022/05/10 14:56:10;;;;;;;;;7.50;5.50;;;;;31.20;25.41;101254.53;5006112;28;45310;-79
2022/05/10 14:58:39;;;;;;;;;7.25;7.25;;;;;31.32;25.21;101238.16;5015934;28;45742;-78
2022/05/10 15:01:25;;;;;;;;;8.75;8.75;;;;;31.56;25.23;101251.59;5018360;28;45807;-79
2022/05/10 15:04:27;;;;;;;;;6.50;6.00;;;;;31.73;25.11;101245.59;5016871;28;45551;-79
2022/05/10 15:06:53;;;;;;;;;9.25;9.25;;;;;31.85;24.49;101246.41;5015712;28;45435;-79
2022/05/10 15:09:19;;;;;;;;;8.00;6.50;;;;;31.80;24.35;101221.44;5016941;28;47970;-78
2022/05/10 15:14:31;;;;;;;;;7.25;6.00;;;;;31.84;23.63;101214.72;5012939;28;45312;-85
2022/05/10 15:16:57;;;;;;;;;7.00;7.00;;;;;31.93;23.85;101215.81;4999101;28;45593;-80
2022/05/10 15:19:26;;;;;;;;;7.25;6.25;;;;;32.04;23.76;101229.38;4991138;28;47132;-81
2022/05/10 15:21:51;;;;;;;;;6.75;6.75;;;;;32.06;23.89;101230.97;5009896;28;45608;-82
2022/05/10 15:24:17;;;;;;;;;9.00;9.00;;;;;32.05;24.13;101233.81;5012702;28;45249;-80
2022/05/10 15:26:48;;;;;;;;;4.75;4.75;;;;;31.99;24.08;101196.22;4988547;28;45657;-83
2022/05/10 15:29:37;;;;;;;;;6.00;6.00;;;;;32.13;24.24;101223.13;4999695;28;47220;-85
2022/05/10 15:32:06;;;;;;;;;6.00;6.00;;;;;32.13;23.67;101208.63;4996777;28;45742;-83
2022/05/10 15:34:49;;;;;;;;;6.75;6.50;;;;;31.96;24.09;101219.13;5008679;28;46017;-82
2022/05/10 15:37:20;;;;;;;;;7.25;7.25;;;;;31.58;23.99;101203.34;5011892;28;45474;-84
2022/05/10 15:39:46;;;;;;;;;8.00;7.00;;;;;31.42;24.11;101210.09;5017475;28;46232;-83
2022/05/10 15:42:22;;;;;;;;;10.75;7.25;;;;;31.27;24.30;101205.03;5015601;28;45265;-82
2022/05/10 15:44:48;;;;;;;;;7.00;7.00;;;;;31.26;24.19;101192.44;5017848;28;45575;-85
2022/05/10 15:47:19;;;;;;;;;6.00;5.75;;;;;31.36;24.28;101190.66;5012118;28;45485;-84
2022/05/10 15:49:45;;;;;;;;;7.00;6.25;;;;;31.51;24.83;101185.81;5003898;28;45830;-82
2022/05/10 15:52:10;;;;;;;;;7.75;7.00;;;;;31.62;24.14;101181.19;4997208;28;45558;-83
2022/05/10 15:54:35;;;;;;;;;7.75;7.25;;;;;31.81;24.09;101188.63;5003521;28;45917;-83
2022/05/10 15:57:01;;;;;;;;;8.25;6.50;;;;;31.95;24.02;101186.59;5012682;28;45424;-80
2022/05/10 15:59:27;;;;;;;;;8.00;8.00;;;;;31.94;23.67;101169.38;5004980;28;45855;-81
2022/05/10 16:01:55;;;;;;;;;8.00;8.00;;;;;31.98;23.75;101176.28;5000974;28;45290;-81
2022/05/10 16:04:21;;;;;;;;;7.50;7.50;;;;;32.00;23.61;101195.25;4999264;28;45281;-82
2022/05/10 16:06:46;;;;;;;;;10.75;9.75;;;;;31.87;24.12;101181.78;5012884;28;45546;-81
2022/05/10 16:09:13;;;;;;;;;9.50;8.75;;;;;31.93;23.71;101188.59;5017307;28;45857;-81
2022/05/10 16:11:39;;;;;;;;;4.50;4.00;;;;;31.91;23.61;101180.50;5016622;28;45412;-81
2022/05/10 16:14:05;;;;;;;;;6.25;6.25;;;;;32.01;23.35;101183.34;5008950;28;45306;-82
2022/05/10 16:16:31;;;;;;;;;7.25;6.00;;;;;32.06;22.91;101186.50;5014078;28;45850;-80
2022/05/10 16:18:57;;;;;;;;;7.75;7.75;;;;;32.12;23.29;101174.22;5016616;28;45328;-81
2022/05/10 16:21:22;;;;;;;;;8.00;8.00;;;;;32.23;23.72;101191.31;5001916;28;45613;-82
2022/05/10 16:23:48;;;;;;;;;8.50;8.00;;;;;32.22;23.37;101169.69;5018682;28;45551;-82
2022/05/10 16:31:43;;;;;;;;;6.50;5.50;;;;;32.28;22.61;101172.72;5015535;28;45312;-81
2022/05/10 16:34:09;;;;;;;;;7.75;7.75;;;;;32.46;22.87;101180.25;5013486;28;45570;-81
2022/05/10 16:36:34;;;;;;;;;8.25;7.50;;;;;32.65;22.57;101171.31;5019938;28;45475;-81
2022/05/10 16:39:00;;;;;;;;;6.50;6.50;;;;;32.83;22.34;101166.91;5002534;28;46747;-81
2022/05/10 16:41:26;;;;;;;;;6.50;6.50;;;;;33.13;22.11;101162.41;5020442;28;45292;-83
2022/05/10 16:43:52;;;;;;;;;9.00;6.75;;;;;33.23;21.62;101149.63;5020656;28;45526;-83
2022/05/10 16:46:17;;;;;;;;;6.00;6.00;;;;;33.69;21.84;101164.44;5019004;28;45828;-82
2022/05/10 16:48:45;;;;;;;;;7.50;7.50;;;;;35.25;21.47;101161.91;5011598;28;46186;-82
2022/05/10 16:51:10;;;;;;;;;5.50;5.50;;;;;37.35;19.08;101168.94;5012577;28;45415;-82
2022/05/10 16:53:36;;;;;;;;;6.25;6.25;;;;;38.68;18.63;101154.78;5003768;28;45643;-82
2022/05/10 16:56:02;;;;;;;;;5.25;5.25;;;;;39.67;17.58;101151.22;5018686;28;45674;-82
2022/05/10 16:58:28;;;;;;;;;7.25;7.25;;;;;40.50;16.38;101153.94;5020434;28;46348;-82
2022/05/10 17:00:53;;;;;;;;;6.00;6.00;;;;;41.04;16.23;101144.41;5016523;28;45317;-83
2022/05/10 17:03:19;;;;;;;;;6.75;6.75;;;;;41.59;15.59;101148.38;5019894;28;45710;-83
2022/05/10 17:05:45;;;;;;;;;5.00;4.75;;;;;40.74;15.63;101144.50;5011578;28;45466;-83
2022/05/10 17:08:10;;;;;;;;;7.00;5.50;;;;;40.43;15.69;101153.84;5020336;28;46273;-82
2022/05/10 17:10:36;;;;;;;;;5.00;5.00;;;;;40.84;16.37;101135.91;5019258;28;45303;-83
2022/05/10 17:13:01;;;;;;;;;5.50;5.25;;;;;41.72;15.85;101145.72;5008146;28;45513;-81
2022/05/10 17:15:27;;;;;;;;;4.50;4.50;;;;;42.29;14.82;101136.31;5018959;28;45391;-82
2022/05/10 17:17:52;;;;;;;;;3.25;3.25;;;;;42.60;14.47;101139.66;5007241;28;47746;-82
2022/05/10 17:20:19;;;;;;;;;5.75;4.00;;;;;42.42;14.27;101137.47;5001813;28;45404;-80
2022/05/10 17:22:48;;;;;;;;;5.50;5.50;;;;;41.99;14.50;101135.72;5017542;28;45646;-80
2022/05/10 17:25:19;;;;;;;;;5.75;5.75;;;;;41.23;15.05;101127.19;5000787;28;45540;-82
2022/05/10 17:27:57;;;;;;;;;4.00;4.00;;;;;40.66;15.37;101122.50;5001104;28;47440;-85
2022/05/10 17:30:26;;;;;;;;;3.25;3.25;;;;;40.12;14.88;101140.22;5018042;28;45265;-84
2022/05/10 17:32:52;;;;;;;;;5.00;5.00;;;;;39.23;15.00;101131.75;5010806;28;45516;-85
2022/05/10 17:35:18;;;;;;;;;6.25;6.25;;;;;38.32;16.18;101138.75;5019230;28;45541;-85
2022/05/10 17:37:56;;;;;;;;;;;;;;;;;;;;;
2022/05/10 17:40:21;;;;;;;;;4.50;4.50;;;;;37.07;17.10;101135.41;5019219;28;73083;-86
2022/05/10 17:42:47;;;;;;;;;5.75;5.00;;;;;36.79;17.45;101123.84;5014460;28;45355;-88
2022/05/10 17:45:13;;;;;;;;;6.25;4.75;;;;;36.43;17.35;101124.91;5001468;28;45553;-82
2022/05/10 17:47:39;;;;;;;;;4.50;4.50;;;;;35.84;17.55;101125.75;5000921;28;47211;-83
2022/05/10 17:50:07;;;;;;;;;5.75;5.75;;;;;35.28;18.15;101133.34;5001924;28;45356;-81
2022/05/10 17:52:33;;;;;;;;;4.25;4.25;;;;;34.60;18.40;101129.19;5015593;28;45544;-80
2022/05/10 17:54:59;;;;;;;;;4.25;4.25;;;;;33.99;18.49;101114.16;5003787;28;45526;-81
2022/05/10 17:57:24;;;;;;;;;5.00;5.00;;;;;33.51;18.95;101120.56;5019618;28;45591;-81
2022/05/10 17:59:50;;;;;;;;;5.50;5.50;;;;;33.01;19.56;101125.31;4993602;28;45895;-80
2022/05/10 18:02:16;;;;;;;;;6.75;5.50;;;;;32.65;19.80;101127.69;5001873;28;45796;-83
2022/05/10 18:04:41;;;;;;;;;6.25;4.75;;;;;32.33;20.43;101134.16;5000956;28;45801;-83
2022/05/10 18:07:07;;;;;;;;;6.00;6.00;;;;;31.96;20.60;101123.78;4994219;28;46994;-82
2022/05/10 18:09:32;;;;;;;;;6.00;6.00;;;;;31.69;20.75;101137.09;4996575;28;45309;-82
2022/05/10 18:12:19;;;;;;;;;;;;;;;;;;;;;
2022/05/10 18:14:45;;;;;;;;;3.50;3.50;;;;;30.95;21.44;101116.09;5017994;28;72691;-82
2022/05/10 18:17:12;;;;;;;;;5.00;5.00;;;;;30.88;21.60;101136.69;5017625;28;47290;-83
2022/05/10 18:19:37;;;;;;;;;5.50;5.50;;;;;30.54;21.82;101109.53;5001255;28;45508;-82
2022/05/10 18:22:03;;;;;;;;;5.00;5.00;;;;;30.39;22.31;101110.75;5003707;28;45583;-80
2022/05/10 18:24:28;;;;;;;;;5.75;5.50;;;;;30.28;22.37;101120.66;5016241;28;45497;-82
2022/05/10 18:26:54;;;;;;;;;4.25;4.25;;;;;30.10;22.30;101119.41;4989431;28;47228;-82
2022/05/10 18:29:19;;;;;;;;;5.25;5.25;;;;;30.06;23.14;101135.06;5007196;28;45314;-82
2022/05/10 18:31:45;;;;;;;;;5.00;4.75;;;;;29.83;22.81;101128.75;5018922;28;45462;-81
2022/05/10 18:34:11;;;;;;;;;5.00;5.00;;;;;29.65;23.01;101128.34;5010050;28;45554;-82
2022/05/10 18:36:37;;;;;;;;;6.00;6.00;;;;;29.40;23.28;101117.63;5017557;28;47813;-82